createdAt,value
2024-03-10T00:01:11.402Z,4.87
2024-03-10T00:03:59.826Z,4.87
2024-03-10T00:06:28.169Z,4.86
2024-03-10T00:08:56.402Z,4.85
2024-03-10T00:11:24.767Z,4.84
2024-03-10T00:13:56.674Z,4.84
2024-03-10T00:16:24.994Z,4.80
2024-03-10T00:18:53.808Z,4.75
2024-03-10T00:21:24.114Z,4.71
2024-03-10T00:23:52.407Z,4.67
2024-03-10T00:26:20.810Z,4.63
2024-03-10T00:28:50.750Z,4.60
2024-03-10T00:31:19.724Z,4.59
2024-03-10T00:33:47.985Z,4.58
2024-03-10T00:36:20.125Z,4.58
2024-03-10T00:38:48.296Z,4.56
2024-03-10T00:41:21.336Z,4.55
2024-03-10T00:43:50.565Z,4.54
2024-03-10T00:46:19.291Z,4.51
2024-03-10T00:48:47.562Z,4.47
2024-03-10T00:51:16.000Z,4.43
2024-03-10T00:53:44.258Z,4.42
2024-03-10T00:56:16.520Z,4.42
2024-03-10T00:58:44.769Z,4.42
2024-03-10T01:01:13.465Z,4.42
2024-03-10T01:03:42.238Z,4.41
2024-03-10T01:06:13.786Z,4.41
2024-03-10T01:08:42.138Z,4.40
2024-03-10T01:11:12.142Z,4.40
2024-03-10T01:13:40.929Z,4.39
2024-03-10T01:16:09.391Z,4.38
2024-03-10T01:18:38.568Z,4.36
2024-03-10T01:21:11.818Z,4.33
2024-03-10T01:23:40.323Z,4.29
2024-03-10T01:26:09.923Z,4.27
2024-03-10T01:28:39.165Z,4.23
2024-03-10T01:31:11.011Z,4.19
2024-03-10T01:33:41.807Z,4.13
2024-03-10T01:36:10.216Z,4.10
2024-03-10T01:38:40.508Z,4.07
2024-03-10T01:41:08.862Z,4.04
2024-03-10T01:43:37.150Z,4.02
2024-03-10T01:46:09.020Z,3.98
2024-03-10T01:48:39.186Z,3.96
2024-03-10T01:51:08.515Z,3.92
2024-03-10T01:53:38.971Z,3.89
2024-03-10T01:56:09.180Z,3.87
2024-03-10T01:58:41.675Z,3.84
2024-03-10T02:01:11.094Z,3.80
2024-03-10T02:03:40.203Z,3.75
2024-03-10T02:06:11.833Z,3.68
2024-03-10T02:08:40.689Z,3.64
2024-03-10T02:11:11.789Z,3.60
2024-03-10T02:13:40.320Z,3.56
2024-03-10T02:16:10.301Z,3.53
2024-03-10T02:18:39.617Z,3.52
2024-03-10T02:21:10.838Z,3.50
2024-03-10T02:23:51.113Z,3.48
2024-03-10T02:26:19.424Z,3.44
2024-03-10T02:29:07.913Z,3.41
2024-03-10T02:31:55.194Z,3.39
2024-03-10T02:34:54.326Z,3.36
2024-03-10T02:37:41.251Z,3.33
2024-03-10T02:40:29.700Z,3.31
2024-03-10T02:43:16.637Z,3.29
2024-03-10T02:46:03.476Z,3.26
2024-03-10T02:48:31.771Z,3.24
2024-03-10T02:51:00.003Z,3.20
2024-03-10T02:53:28.304Z,3.16
2024-03-10T02:55:56.618Z,3.13
2024-03-10T02:58:27.640Z,3.12
2024-03-10T03:00:56.481Z,3.11
2024-03-10T03:03:26.945Z,3.11
2024-03-10T03:05:55.205Z,3.11
2024-03-10T03:08:23.447Z,3.10
2024-03-10T03:10:53.948Z,3.10
2024-03-10T03:13:22.372Z,3.08
2024-03-10T03:15:51.917Z,3.05
2024-03-10T03:18:20.262Z,3.05
2024-03-10T03:20:48.611Z,3.00
2024-03-10T03:23:19.162Z,2.95
2024-03-10T03:25:54.690Z,2.92
2024-03-10T03:28:22.986Z,2.89
2024-03-10T03:30:51.450Z,2.87
2024-03-10T03:33:21.607Z,2.84
2024-03-10T03:35:49.988Z,2.81
2024-03-10T03:38:18.637Z,2.79
2024-03-10T03:40:49.483Z,2.76
2024-03-10T03:43:18.247Z,2.74
2024-03-10T03:45:46.376Z,2.71
2024-03-10T03:48:17.575Z,2.72
2024-03-10T03:50:47.816Z,2.74
2024-03-10T03:53:16.054Z,2.78
2024-03-10T03:55:44.340Z,2.84
2024-03-10T03:58:12.766Z,2.89
2024-03-10T04:00:42.300Z,2.92
2024-03-10T04:03:11.357Z,2.95
2024-03-10T04:05:42.182Z,2.99
2024-03-10T04:08:12.930Z,3.02
2024-03-10T04:10:41.515Z,3.04
2024-03-10T04:13:10.491Z,3.05
2024-03-10T04:15:39.485Z,3.08
2024-03-10T04:18:08.661Z,3.10
2024-03-10T04:20:37.207Z,3.11
2024-03-10T04:23:06.872Z,3.11
2024-03-10T04:25:35.799Z,3.12
2024-03-10T04:28:04.689Z,3.13
2024-03-10T04:30:36.030Z,3.13
2024-03-10T04:33:04.832Z,3.13
2024-03-10T04:35:36.435Z,3.13
2024-03-10T04:38:06.300Z,3.13
2024-03-10T04:40:34.611Z,3.13
2024-03-10T04:43:03.025Z,3.12
2024-03-10T04:45:31.177Z,3.11
2024-03-10T04:48:00.068Z,3.10
2024-03-10T04:50:28.497Z,3.08
2024-03-10T04:52:59.245Z,3.06
2024-03-10T04:55:28.127Z,3.02
2024-03-10T04:57:59.494Z,2.99
2024-03-10T05:00:27.870Z,2.97
2024-03-10T05:02:56.035Z,2.95
2024-03-10T05:05:24.403Z,2.94
2024-03-10T05:07:53.202Z,2.92
2024-03-10T05:10:21.583Z,2.87
2024-03-10T05:12:49.827Z,2.80
2024-03-10T05:15:18.709Z,2.77
2024-03-10T05:17:47.098Z,2.74
2024-03-10T05:20:19.747Z,2.71
2024-03-10T05:22:48.105Z,2.68
2024-03-10T05:25:16.820Z,2.65
2024-03-10T05:27:46.999Z,2.62
2024-03-10T05:30:16.633Z,2.60
2024-03-10T05:32:45.687Z,2.57
2024-03-10T05:35:15.554Z,2.56
2024-03-10T05:37:43.942Z,2.56
2024-03-10T05:40:12.898Z,2.59
2024-03-10T05:42:41.198Z,2.64
2024-03-10T05:45:09.736Z,2.68
2024-03-10T05:47:38.326Z,2.75
2024-03-10T05:50:08.443Z,2.82
2024-03-10T05:52:36.763Z,2.92
2024-03-10T05:55:08.620Z,3.01
2024-03-10T05:57:37.520Z,3.11
2024-03-10T06:00:07.782Z,3.20
2024-03-10T06:02:49.438Z,3.28
2024-03-10T06:05:18.216Z,3.35
2024-03-10T06:07:46.924Z,3.42
2024-03-10T06:10:15.226Z,3.50
2024-03-10T06:12:45.911Z,3.58
2024-03-10T06:15:17.735Z,3.65
2024-03-10T06:18:03.653Z,3.72
2024-03-10T06:20:51.095Z,3.79
2024-03-10T06:23:54.308Z,3.86
2024-03-10T06:26:25.303Z,3.93
2024-03-10T06:28:53.736Z,3.99
2024-03-10T06:31:26.821Z,4.06
2024-03-10T06:33:58.862Z,4.12
2024-03-10T06:36:28.596Z,4.19
2024-03-10T06:38:58.409Z,4.26
2024-03-10T06:41:27.433Z,4.32
2024-03-10T06:43:56.485Z,4.40
2024-03-10T06:46:25.072Z,4.46
2024-03-10T06:48:53.577Z,4.53
2024-03-10T06:51:24.684Z,4.60
2024-03-10T06:53:53.017Z,4.66
2024-03-10T06:56:21.784Z,4.72
2024-03-10T06:58:55.412Z,4.78
2024-03-10T07:01:23.944Z,4.83
2024-03-10T07:03:54.185Z,4.89
2024-03-10T07:06:23.170Z,4.93
2024-03-10T07:08:51.458Z,4.98
2024-03-10T07:11:23.607Z,5.03
2024-03-10T07:13:52.066Z,5.09
2024-03-10T07:16:20.999Z,5.18
2024-03-10T07:18:49.192Z,5.34
2024-03-10T07:21:18.503Z,5.54
2024-03-10T07:23:46.723Z,5.75
2024-03-10T07:26:14.942Z,5.94
2024-03-10T07:28:43.092Z,6.11
2024-03-10T07:31:15.837Z,6.26
2024-03-10T07:33:43.991Z,6.43
2024-03-10T07:36:14.264Z,6.64
2024-03-10T07:38:42.478Z,6.88
2024-03-10T07:41:13.015Z,7.13
2024-03-10T07:43:45.077Z,7.37
2024-03-10T07:46:13.681Z,7.60
2024-03-10T07:48:45.774Z,7.80
2024-03-10T07:51:16.535Z,8.02
2024-03-10T07:53:44.701Z,8.23
2024-03-10T07:56:12.871Z,8.41
2024-03-10T07:58:41.269Z,8.60
2024-03-10T08:01:12.217Z,8.79
2024-03-10T08:03:40.359Z,8.96
2024-03-10T08:06:09.081Z,9.13
2024-03-10T08:08:37.899Z,9.29
2024-03-10T08:11:06.228Z,9.44
2024-03-10T08:13:34.332Z,9.57
2024-03-10T08:16:05.007Z,9.73
2024-03-10T08:18:33.726Z,9.86
2024-03-10T08:21:02.107Z,10.00
2024-03-10T08:23:30.471Z,10.14
2024-03-10T08:26:01.403Z,10.24
2024-03-10T08:28:29.891Z,10.27
2024-03-10T08:31:00.148Z,10.28
2024-03-10T08:33:31.136Z,10.29
2024-03-10T08:35:59.893Z,10.31
2024-03-10T08:38:28.356Z,10.32
2024-03-10T10:58:53.930Z,14.68
2024-03-10T11:01:22.754Z,14.60
2024-03-10T11:03:55.757Z,14.49
2024-03-10T11:06:25.438Z,14.35
2024-03-10T11:08:58.840Z,14.26
2024-03-10T11:11:44.459Z,14.17
2024-03-10T11:14:15.295Z,14.12
2024-03-10T11:16:44.768Z,14.05
2024-03-10T11:19:19.350Z,13.96
2024-03-10T11:21:51.979Z,13.87
2024-03-10T11:24:23.869Z,13.85
2024-03-10T11:27:21.089Z,13.88
2024-03-10T11:29:53.047Z,13.94
2024-03-10T11:32:37.024Z,13.97
2024-03-10T11:35:30.446Z,14.00
2024-03-10T11:38:01.035Z,14.05
2024-03-10T11:40:31.796Z,14.11
2024-03-10T11:43:03.046Z,14.15
2024-03-10T11:45:42.306Z,14.20
2024-03-10T11:48:10.729Z,14.28
2024-03-10T11:50:42.420Z,14.31
2024-03-10T11:53:13.929Z,14.31
2024-03-10T11:55:45.595Z,14.30
2024-03-10T11:58:16.091Z,14.28
2024-03-10T12:00:44.521Z,14.29
2024-03-10T12:03:15.226Z,14.31
2024-03-10T12:05:44.661Z,14.36
2024-03-10T12:08:14.628Z,14.44
2024-03-10T12:10:43.016Z,14.53
2024-03-10T12:13:20.135Z,14.64
2024-03-10T12:15:54.800Z,14.77
2024-03-10T12:18:23.586Z,14.89
2024-03-10T12:20:54.870Z,14.99
2024-03-10T12:23:25.869Z,15.05
2024-03-10T12:25:55.799Z,15.08
2024-03-10T12:28:27.260Z,15.10
2024-03-10T12:31:02.456Z,15.08
2024-03-10T12:33:30.762Z,15.00
2024-03-10T12:36:02.161Z,14.92
2024-03-10T12:42:26.348Z,14.85
2024-03-10T12:45:01.904Z,14.85
2024-03-10T12:52:00.631Z,14.86
2024-03-10T12:59:01.407Z,14.86
2024-03-10T13:05:14.660Z,14.85
2024-03-10T13:11:46.204Z,14.90
2024-03-10T13:14:24.767Z,14.90
2024-03-10T15:53:27.695Z,13.99
2024-03-10T15:55:57.770Z,13.72
2024-03-10T15:58:26.280Z,13.52
2024-03-10T16:00:54.650Z,13.36
2024-03-10T16:03:35.720Z,13.21
2024-03-10T16:06:04.169Z,13.07
2024-03-10T16:08:35.044Z,12.95
2024-03-10T16:11:03.716Z,12.83
2024-03-10T16:13:40.645Z,12.72
2024-03-10T16:16:11.814Z,12.62
2024-03-10T16:18:40.884Z,12.53
2024-03-10T16:21:13.698Z,12.45
2024-03-10T16:23:43.430Z,12.35
2024-03-10T16:26:12.408Z,12.26
2024-03-10T16:28:40.715Z,12.18
2024-03-10T16:31:10.339Z,12.11
2024-03-10T16:33:38.655Z,12.03
2024-03-10T16:36:07.369Z,11.96
2024-03-10T16:38:38.467Z,11.89
2024-03-10T16:41:08.563Z,11.83
2024-03-10T16:43:40.234Z,11.78
2024-03-10T16:46:08.552Z,11.72
2024-03-10T16:48:37.018Z,11.68
2024-03-10T16:51:10.119Z,11.62
2024-03-10T16:53:38.880Z,11.55
2024-03-10T16:56:08.643Z,11.51
2024-03-10T16:58:39.328Z,11.46
2024-03-10T17:01:11.178Z,11.41
2024-03-10T17:03:42.265Z,11.37
2024-03-10T17:06:13.207Z,11.32
2024-03-10T17:08:41.572Z,11.28
2024-03-10T17:11:10.101Z,11.23
2024-03-10T17:13:38.756Z,11.19
2024-03-10T17:16:10.106Z,11.15
2024-03-10T17:18:40.709Z,11.09
2024-03-10T17:21:09.113Z,11.03
2024-03-10T17:23:37.538Z,10.96
2024-03-10T17:26:06.016Z,10.89
2024-03-10T17:28:35.166Z,10.81
2024-03-10T17:31:03.333Z,10.72
2024-03-10T17:33:31.723Z,10.66
2024-03-10T17:36:00.916Z,10.58
2024-03-10T17:38:33.433Z,10.50
2024-03-10T17:41:01.862Z,10.44
2024-03-10T17:43:30.122Z,10.41
2024-03-10T17:45:58.440Z,10.37
2024-03-10T17:48:27.013Z,10.34
2024-03-10T17:50:55.228Z,10.31
2024-03-10T17:53:24.185Z,10.27
2024-03-10T17:55:52.517Z,10.24
2024-03-10T17:58:20.836Z,10.21
2024-03-10T18:09:00.265Z,10.05
2024-03-10T18:19:33.561Z,9.95
2024-03-10T20:31:49.095Z,8.83
2024-03-10T20:34:24.180Z,8.65
2024-03-10T20:36:52.586Z,8.47
2024-03-10T20:39:21.010Z,8.33
2024-03-10T20:41:49.468Z,8.23
2024-03-10T20:44:18.013Z,8.13
2024-03-10T20:46:46.379Z,8.07
2024-03-10T20:49:15.363Z,8.01
2024-03-10T20:51:43.718Z,7.96
2024-03-10T20:54:12.575Z,7.93
2024-03-10T20:56:40.887Z,7.90
2024-03-10T20:59:09.430Z,7.90
2024-03-10T21:01:40.392Z,7.91
2024-03-10T21:04:08.753Z,7.92
2024-03-10T21:06:38.494Z,7.94
2024-03-10T21:09:06.842Z,7.96
2024-03-10T21:11:35.218Z,7.98
2024-03-10T21:14:03.831Z,7.99
2024-03-10T21:16:32.183Z,8.01
2024-03-10T21:19:00.792Z,8.01
2024-03-10T21:21:31.233Z,8.03
2024-03-10T21:23:59.522Z,8.03
2024-03-10T21:26:30.190Z,8.03
2024-03-10T21:28:58.798Z,8.02
2024-03-10T21:31:30.044Z,8.04
2024-03-10T21:33:58.419Z,8.05
2024-03-10T21:36:26.731Z,8.05
2024-03-10T21:38:54.993Z,8.06
2024-03-10T21:41:23.439Z,8.08
2024-03-10T21:43:53.234Z,8.08
2024-03-10T21:46:21.824Z,8.08
2024-03-10T21:48:49.962Z,8.10
2024-03-10T21:51:18.227Z,8.12
2024-03-10T21:53:48.375Z,8.12
2024-03-10T21:56:19.049Z,8.12
2024-03-10T21:58:47.388Z,8.12
2024-03-10T22:01:15.594Z,8.11
2024-03-10T22:03:46.456Z,8.10
2024-03-10T22:06:14.626Z,8.08
2024-03-10T22:08:44.145Z,8.03
2024-03-10T22:11:13.440Z,7.99
2024-03-10T22:13:41.764Z,7.95
2024-03-10T22:16:10.447Z,7.91
2024-03-10T22:18:38.683Z,7.89
2024-03-10T22:21:07.033Z,7.87
2024-03-10T22:23:35.396Z,7.84
2024-03-10T22:26:07.654Z,7.81
2024-03-10T22:28:36.177Z,7.79
2024-03-10T22:31:05.369Z,7.78
2024-03-10T22:33:33.638Z,7.78
2024-03-10T22:36:05.517Z,7.81
2024-03-10T22:38:34.414Z,7.83
2024-03-10T22:41:02.875Z,7.86
2024-03-10T22:43:31.095Z,7.87
2024-03-10T22:45:59.564Z,7.89
2024-03-10T22:48:28.423Z,7.90
2024-03-10T22:50:56.787Z,7.90
2024-03-10T22:53:25.072Z,7.90
2024-03-10T22:55:53.745Z,7.90
2024-03-10T22:58:22.023Z,7.89
2024-03-10T23:00:56.357Z,7.88
2024-03-10T23:03:24.827Z,7.85
2024-03-10T23:05:54.433Z,7.84
2024-03-10T23:08:24.131Z,7.82
2024-03-10T23:10:52.957Z,7.83
2024-03-10T23:13:21.524Z,7.83
2024-03-10T23:15:50.951Z,7.83
2024-03-10T23:18:26.646Z,7.84
2024-03-10T23:20:57.361Z,7.85
2024-03-10T23:23:26.421Z,7.84
2024-03-10T23:25:57.051Z,7.84
2024-03-10T23:28:25.393Z,7.84
2024-03-10T23:30:54.985Z,7.85
2024-03-10T23:33:23.591Z,7.87
2024-03-10T23:35:52.452Z,7.87
2024-03-10T23:38:20.985Z,7.88
2024-03-10T23:40:49.318Z,7.89
2024-03-10T23:43:18.383Z,7.90
2024-03-10T23:45:47.022Z,7.90
2024-03-10T23:48:15.479Z,7.89
2024-03-10T23:50:44.932Z,7.88
2024-03-10T23:53:14.741Z,7.88
2024-03-10T23:55:43.879Z,7.88
2024-03-10T23:58:15.131Z,7.87
